Time;durP1;ratioP1;P1;durP2;ratioP2;P2;SDS_P1;SDS_P2;PMS_P1;PMS_P2;Temp;Humidity;BMP_temperature;BMP_pressure;BME280_temperature;BME280_humidity;BME280_pressure;Samples;Min_cycle;Max_cycle;Signal;HPM_P1;HPM_P2
2023/09/04 00:02:01;;;;;;;3.03;2.73;;;22.40;61.90;23.20;101915.00;;;;5028493;28;20210;-53
2023/09/04 00:04:27;;;;;;;3.30;2.80;;;22.40;62.10;23.20;101916.00;;;;5028095;28;20222;-54
2023/09/04 00:06:53;;;;;;;3.30;3.00;;;22.40;62.30;23.10;101908.00;;;;5028719;28;20294;-54
2023/09/04 00:09:19;;;;;;;3.00;2.80;;;22.30;62.00;23.10;101914.00;;;;5028099;28;20199;-53
2023/09/04 00:11:44;;;;;;;2.93;2.73;;;22.30;62.20;23.10;101913.00;;;;5031202;28;20541;-54
2023/09/04 00:14:11;;;;;;;3.53;3.20;;;22.40;62.90;23.10;101918.00;;;;5040748;28;20199;-53
2023/09/04 00:16:37;;;;;;;3.30;2.90;;;22.40;62.00;23.10;101917.00;;;;5029630;28;20182;-55
2023/09/04 00:19:03;;;;;;;3.47;2.90;;;22.40;62.20;23.10;101925.00;;;;5028769;28;20183;-53
2023/09/04 00:21:29;;;;;;;3.00;2.80;;;22.40;61.90;23.00;101914.00;;;;5014025;28;20318;-54
2023/09/04 00:23:54;;;;;;;3.30;3.00;;;22.30;62.00;23.00;101856.00;;;;5014703;28;20254;-54
2023/09/04 00:26:20;;;;;;;4.10;2.90;;;22.20;62.20;23.00;101910.00;;;;5033328;28;20355;-57
2023/09/04 00:28:46;;;;;;;4.07;2.97;;;22.20;62.60;23.00;101908.00;;;;5028126;28;20762;-53
2023/09/04 00:31:11;;;;;;;3.20;2.90;;;22.20;62.60;23.00;101905.00;;;;5028401;28;20210;-53
2023/09/04 00:33:38;;;;;;;3.00;2.80;;;22.20;62.60;23.00;101912.00;;;;5028172;28;20237;-53
2023/09/04 00:36:04;;;;;;;4.20;3.10;;;22.30;62.70;22.90;101915.00;;;;5027965;28;20215;-55
2023/09/04 00:38:29;;;;;;;2.90;2.70;;;22.20;62.50;23.00;101918.00;;;;5027776;28;20210;-53
2023/09/04 00:40:55;;;;;;;3.10;2.90;;;22.20;62.60;22.90;101919.00;;;;5027821;28;20199;-54
2023/09/04 00:43:21;;;;;;;3.63;2.93;;;22.20;62.90;22.90;101916.00;;;;5027600;28;20206;-54
2023/09/04 00:45:47;;;;;;;3.20;2.90;;;22.20;62.80;22.90;101908.00;;;;5027696;28;20209;-53
2023/09/04 00:48:13;;;;;;;2.90;2.70;;;22.20;62.70;22.80;101914.00;;;;5027820;28;20179;-53
2023/09/04 00:50:39;;;;;;;3.10;2.90;;;22.20;62.70;22.90;101911.00;;;;5027759;28;20253;-53
2023/09/04 00:53:05;;;;;;;3.10;2.80;;;22.20;62.70;22.90;101909.00;;;;5027768;28;20183;-54
2023/09/04 00:55:30;;;;;;;3.13;2.80;;;22.10;62.60;22.90;101893.00;;;;5010080;28;20175;-54
2023/09/04 00:57:56;;;;;;;3.10;2.90;;;22.10;62.60;22.90;101900.00;;;;5010189;28;20237;-54
2023/09/04 01:00:23;;;;;;;3.40;3.10;;;22.20;62.80;22.90;101887.00;;;;5027243;28;20653;-52
2023/09/04 01:02:49;;;;;;;3.93;2.87;;;22.20;62.50;22.80;101873.00;;;;5027672;28;20253;-53
2023/09/04 01:05:15;;;;;;;3.43;2.83;;;22.10;62.60;22.80;101882.00;;;;5028058;28;20223;-53
2023/09/04 01:07:41;;;;;;;3.20;3.00;;;22.00;63.00;22.70;101886.00;;;;5027781;28;20698;-53
2023/09/04 01:10:10;;;;;;;3.40;2.90;;;22.00;63.20;22.70;101872.00;;;;5009760;28;20186;-53
2023/09/04 01:12:51;;;;;;;3.30;3.00;;;22.10;62.90;22.70;101891.00;;;;5010057;28;20195;-53
2023/09/04 01:15:16;;;;;;;2.90;2.70;;;22.10;62.60;22.70;101882.00;;;;5021648;28;20218;-53
2023/09/04 01:17:43;;;;;;;3.77;2.87;;;22.00;62.90;22.70;101888.00;;;;5013953;28;20236;-54
2023/09/04 01:20:29;;;;;;;4.97;2.90;;;22.00;62.90;22.70;101879.00;;;;5013552;28;20815;-53
2023/09/04 01:22:58;;;;;;;3.60;3.07;;;21.90;62.90;22.60;101877.00;;;;5031498;28;20186;-55
2023/09/04 01:25:52;;;;;;;3.27;2.83;;;21.90;63.10;22.60;101872.00;;;;5023369;28;20212;-54
2023/09/04 01:28:28;;;;;;;3.27;2.97;;;22.00;62.90;22.60;101855.00;;;;5017363;28;20191;-53
2023/09/04 01:31:26;;;;;;;3.13;2.83;;;22.00;62.90;22.60;101859.00;;;;5014545;28;20206;-54
2023/09/04 01:34:03;;;;;;;3.37;3.07;;;22.00;63.50;22.60;101864.00;;;;5019681;28;20309;-53
2023/09/04 01:36:31;;;;;;;3.23;2.93;;;22.00;62.80;22.50;101855.00;;;;5014134;28;20721;-53
2023/09/04 01:38:56;;;;;;;3.27;2.97;;;22.00;63.00;22.50;101859.00;;;;5013213;28;20193;-54
2023/09/04 01:41:22;;;;;;;4.73;3.30;;;21.90;63.10;22.50;101863.00;;;;5030779;28;20219;-54
2023/09/04 01:43:48;;;;;;;3.80;2.80;;;21.90;63.20;22.50;101870.00;;;;5030939;28;20209;-53
2023/09/04 01:46:14;;;;;;;3.23;2.90;;;21.90;62.90;22.50;101871.00;;;;5030880;28;20179;-53
2023/09/04 01:48:39;;;;;;;3.50;2.80;;;21.80;62.90;22.50;101870.00;;;;5031391;28;20178;-53
2023/09/04 01:51:05;;;;;;;3.37;3.07;;;21.80;62.90;22.50;101871.00;;;;5030823;28;20195;-54
2023/09/04 01:53:31;;;;;;;3.27;3.07;;;21.90;63.00;22.40;101863.00;;;;5030757;28;20194;-54
2023/09/04 01:55:58;;;;;;;3.00;2.63;;;21.80;63.00;22.40;101879.00;;;;5030851;28;20249;-53
2023/09/04 01:58:24;;;;;;;4.13;3.13;;;21.80;63.10;22.40;101873.00;;;;5030799;28;20202;-54
2023/09/04 02:00:50;;;;;;;2.80;2.60;;;21.80;62.90;22.00;101878.00;;;;5030229;28;20223;-57
2023/09/04 02:03:16;;;;;;;3.30;3.00;;;21.80;63.10;22.40;101874.00;;;;5022599;28;20214;-54
2023/09/04 02:05:42;;;;;;;3.70;3.10;;;21.80;63.00;22.40;101883.00;;;;5021083;28;20261;-54
2023/09/04 02:08:08;;;;;;;3.00;2.80;;;21.70;63.10;22.30;101878.00;;;;5011306;28;20293;-54
2023/09/04 02:10:35;;;;;;;2.90;2.70;;;21.70;63.00;22.30;101880.00;;;;5007304;28;20323;-56
2023/09/04 02:13:01;;;;;;;3.00;2.80;;;21.70;63.10;22.30;101876.00;;;;5021783;28;20650;-54
2023/09/04 02:15:28;;;;;;;3.17;2.83;;;21.70;63.00;22.20;101880.00;;;;5024217;28;20607;-54
2023/09/04 02:17:54;;;;;;;3.37;2.90;;;21.70;63.10;22.30;101881.00;;;;5006379;28;20176;-53
2023/09/04 02:20:21;;;;;;;3.40;3.10;;;21.70;62.70;22.20;101874.00;;;;5012440;28;20184;-53
2023/09/04 02:22:46;;;;;;;3.20;2.90;;;21.70;62.90;22.20;101876.00;;;;5026893;28;20536;-53
2023/09/04 02:25:12;;;;;;;3.20;2.90;;;21.60;62.80;22.10;101876.00;;;;5047108;28;20234;-52
2023/09/04 02:27:38;;;;;;;3.87;2.70;;;21.60;63.00;22.10;101871.00;;;;5029162;28;20207;-54
2023/09/04 02:30:07;;;;;;;3.00;2.80;;;21.50;63.10;22.10;101872.00;;;;5028895;28;20237;-53
2023/09/04 02:32:33;;;;;;;4.63;2.90;;;21.50;63.10;22.10;101848.00;;;;5030299;28;20211;-54
2023/09/04 02:34:59;;;;;;;3.43;2.90;;;21.50;63.10;22.10;101864.00;;;;5013604;28;20654;-54
2023/09/04 02:37:26;;;;;;;3.20;2.90;;;21.50;63.70;22.10;101862.00;;;;5014048;28;20206;-53
2023/09/04 02:39:52;;;;;;;4.40;2.93;;;21.50;62.90;22.00;101855.00;;;;5029604;28;20174;-54
2023/09/04 02:42:17;;;;;;;5.80;2.90;;;21.50;62.90;22.00;101860.00;;;;5029942;28;20708;-53
2023/09/04 02:44:43;;;;;;;3.30;3.00;;;21.50;62.90;22.00;101864.00;;;;5015535;28;20235;-54
2023/09/04 02:47:09;;;;;;;3.00;2.80;;;21.40;63.30;22.00;101857.00;;;;5011613;28;20285;-53
2023/09/04 02:49:35;;;;;;;3.30;3.00;;;21.40;63.00;22.00;101856.00;;;;5029646;28;20257;-53
2023/09/04 02:52:00;;;;;;;5.17;3.20;;;21.40;63.00;21.90;101852.00;;;;5011776;28;20206;-53
2023/09/04 02:54:26;;;;;;;5.17;2.93;;;21.40;63.00;21.90;101847.00;;;;5029784;28;20182;-53
2023/09/04 02:56:52;;;;;;;3.77;2.77;;;21.40;62.90;21.90;101852.00;;;;5029713;28;20209;-56
2023/09/04 02:59:17;;;;;;;5.37;2.80;;;21.30;63.30;21.90;101846.00;;;;5029762;28;20269;-56
2023/09/04 03:01:43;;;;;;;4.13;2.80;;;21.30;63.60;21.90;101849.00;;;;5030336;28;20214;-58
2023/09/04 03:04:09;;;;;;;4.57;2.70;;;21.30;63.70;21.90;101843.00;;;;5030979;28;20325;-56
2023/09/04 03:06:34;;;;;;;5.47;3.07;;;21.30;63.90;21.90;101846.00;;;;5031109;28;20183;-56
2023/09/04 03:09:00;;;;;;;3.10;2.70;;;21.20;64.00;21.90;101837.00;;;;5022267;28;20179;-57
2023/09/04 03:11:26;;;;;;;3.30;3.00;;;21.20;63.90;21.90;101845.00;;;;4994485;28;20585;-57
2023/09/04 03:13:52;;;;;;;3.87;2.67;;;21.20;64.00;21.90;101850.00;;;;5012831;28;20192;-57
2023/09/04 03:16:17;;;;;;;3.47;2.70;;;21.20;64.20;21.90;101843.00;;;;5029828;28;20187;-57
2023/09/04 03:18:43;;;;;;;3.13;2.67;;;21.20;64.10;21.90;101830.00;;;;5012291;28;20206;-57
2023/09/04 03:21:10;;;;;;;3.80;3.07;;;21.20;64.20;21.80;101834.00;;;;4996451;28;20261;-58
2023/09/04 03:23:36;;;;;;;8.77;3.37;;;21.20;64.30;21.80;101850.00;;;;5006449;28;20227;-57
2023/09/04 03:26:02;;;;;;;6.43;3.23;;;21.20;64.40;21.80;101848.00;;;;4993000;28;20266;-57
2023/09/04 03:28:28;;;;;;;3.97;2.77;;;21.20;64.30;21.80;101856.00;;;;5022383;28;20186;-57
2023/09/04 03:30:54;;;;;;;3.27;2.97;;;21.20;64.40;21.80;101856.00;;;;5029319;28;20202;-57
2023/09/04 03:33:20;;;;;;;3.37;3.07;;;21.20;64.40;21.80;101859.00;;;;5010479;28;20194;-56
2023/09/04 03:35:45;;;;;;;3.27;2.93;;;21.20;64.50;21.80;101861.00;;;;5015490;28;20178;-56
2023/09/04 03:38:11;;;;;;;3.10;2.90;;;21.20;64.50;21.80;101854.00;;;;5029240;28;20183;-57
2023/09/04 03:40:37;;;;;;;5.53;3.40;;;21.20;64.40;21.80;101859.00;;;;5025639;28;20204;-57
2023/09/04 03:43:03;;;;;;;4.50;2.90;;;21.20;64.40;21.80;101857.00;;;;5011242;28;20190;-57
2023/09/04 03:45:35;;;;;;;3.03;2.80;;;21.20;64.40;21.80;101862.00;;;;5025453;28;20631;-57
2023/09/04 03:48:01;;;;;;;3.40;2.73;;;21.20;64.40;21.80;101857.00;;;;5009813;28;20218;-57
2023/09/04 03:50:27;;;;;;;3.80;2.97;;;21.10;64.40;21.80;101850.00;;;;5022011;28;20202;-57
2023/09/04 03:52:53;;;;;;;3.57;3.00;;;21.20;64.50;21.80;101845.00;;;;5029639;28;20675;-57
2023/09/04 03:55:19;;;;;;;3.93;2.77;;;21.20;64.50;21.80;101850.00;;;;5028995;28;20191;-61
2023/09/04 03:57:48;;;;;;;3.40;3.10;;;21.10;64.40;21.70;101842.00;;;;5029729;28;20720;-57
2023/09/04 04:00:16;;;;;;;4.20;2.90;;;21.10;64.50;21.70;101839.00;;;;5028639;28;20178;-56
2023/09/04 04:02:43;;;;;;;3.40;2.90;;;21.10;64.50;21.70;101840.00;;;;5025910;28;20194;-58
2023/09/04 04:05:10;;;;;;;4.30;2.90;;;21.10;64.50;21.70;101830.00;;;;5021797;28;20302;-57
2023/09/04 04:07:36;;;;;;;4.77;2.80;;;21.10;64.50;21.70;101834.00;;;;5025080;28;20162;-58
2023/09/04 04:10:02;;;;;;;3.90;2.93;;;21.10;65.30;21.70;101825.00;;;;5042187;28;20287;-58
2023/09/04 04:12:28;;;;;;;3.10;2.80;;;21.10;64.70;21.70;101825.00;;;;5021193;28;20203;-56
2023/09/04 04:14:54;;;;;;;4.57;2.80;;;21.10;64.70;21.70;101837.00;;;;5025659;28;20217;-57
2023/09/04 04:17:20;;;;;;;4.80;3.13;;;21.10;64.70;21.70;101822.00;;;;5011184;28;20889;-56
2023/09/04 04:19:47;;;;;;;3.90;3.00;;;21.10;64.70;21.60;101823.00;;;;5024103;28;20183;-56
2023/09/04 04:22:13;;;;;;;5.57;3.23;;;21.00;64.60;21.60;101828.00;;;;5045327;28;20187;-57
2023/09/04 04:24:39;;;;;;;3.70;2.60;;;21.00;64.80;21.60;101833.00;;;;5038279;28;20214;-56
2023/09/04 04:27:04;;;;;;;3.23;2.93;;;21.10;65.00;21.60;101836.00;;;;5023398;28;20184;-56
2023/09/04 04:29:30;;;;;;;3.07;2.70;;;21.00;64.80;21.60;101832.00;;;;5012758;28;20253;-57
2023/09/04 04:31:56;;;;;;;3.30;3.00;;;21.00;64.80;21.60;101836.00;;;;5017412;28;20206;-57
2023/09/04 04:34:23;;;;;;;2.90;2.60;;;21.00;64.80;21.50;101841.00;;;;5029514;28;20226;-57
2023/09/04 04:36:55;;;;;;;3.07;2.80;;;21.00;64.90;21.50;101837.00;;;;5028879;28;20432;-58
2023/09/04 04:39:20;;;;;;;4.53;2.70;;;21.00;64.90;21.50;101835.00;;;;5029222;28;20183;-57
2023/09/04 04:41:47;;;;;;;3.13;2.73;;;21.00;65.00;21.50;101838.00;;;;5026917;28;20241;-57
2023/09/04 04:44:13;;;;;;;3.63;2.90;;;21.00;65.00;21.50;101847.00;;;;5011567;28;20210;-57
2023/09/04 04:46:40;;;;;;;3.63;2.90;;;20.90;65.40;21.50;101850.00;;;;5020420;28;20194;-57
2023/09/04 04:49:06;;;;;;;2.97;2.70;;;20.90;65.00;21.50;101852.00;;;;5030308;28;20182;-58
2023/09/04 04:51:31;;;;;;;3.00;2.80;;;21.00;65.00;21.50;101852.00;;;;5035310;28;20202;-57
2023/09/04 04:53:57;;;;;;;3.07;2.70;;;20.90;65.00;21.40;101865.00;;;;5035415;28;20195;-57
2023/09/04 04:56:23;;;;;;;3.20;2.60;;;20.90;65.00;21.40;101859.00;;;;5035168;28;20175;-57
2023/09/04 04:58:48;;;;;;;4.27;2.87;;;20.90;65.00;21.40;101859.00;;;;5035322;28;20179;-57
2023/09/04 05:01:14;;;;;;;2.87;2.60;;;20.90;65.00;21.40;101863.00;;;;5031371;28;20219;-57
2023/09/04 05:03:40;;;;;;;3.20;2.90;;;20.90;65.00;21.40;101860.00;;;;5035730;28;20195;-56
2023/09/04 05:06:07;;;;;;;4.07;2.67;;;20.90;65.00;21.30;101861.00;;;;5035296;28;20202;-57
2023/09/04 05:08:33;;;;;;;3.53;3.10;;;20.90;65.00;21.30;101880.00;;;;5020979;28;20191;-57
2023/09/04 05:11:04;;;;;;;3.70;2.90;;;20.90;65.00;21.40;101879.00;;;;5027052;28;20226;-57
2023/09/04 05:13:30;;;;;;;2.50;2.30;;;20.90;65.00;21.30;101874.00;;;;5020379;28;20175;-57
2023/09/04 05:15:56;;;;;;;2.80;2.60;;;20.90;65.00;21.30;101885.00;;;;5029338;28;20219;-56
2023/09/04 05:18:22;;;;;;;4.37;2.80;;;20.90;65.00;21.30;101889.00;;;;5007922;28;20602;-57
2023/09/04 05:20:48;;;;;;;2.80;2.60;;;20.90;65.00;21.30;101882.00;;;;5023389;28;20187;-56
2023/09/04 05:23:14;;;;;;;2.80;2.60;;;20.80;64.90;21.30;101886.00;;;;5024308;28;20229;-57
2023/09/04 05:25:51;;;;;;;2.83;2.63;;;20.80;65.00;21.30;101884.00;;;;5014292;28;20180;-57
2023/09/04 05:28:16;;;;;;;2.80;2.60;;;20.80;65.00;21.30;101888.00;;;;5033741;28;20183;-56
2023/09/04 05:30:42;;;;;;;2.83;2.63;;;20.80;65.00;21.30;101875.00;;;;5034260;28;20202;-57
2023/09/04 05:33:08;;;;;;;2.90;2.70;;;20.80;65.00;21.20;101886.00;;;;5034758;28;20250;-57
2023/09/04 05:35:33;;;;;;;2.97;2.40;;;20.80;65.00;21.20;101877.00;;;;5026088;28;20262;-57
2023/09/04 05:37:59;;;;;;;2.80;2.50;;;20.80;65.00;21.20;101888.00;;;;5034892;28;20179;-57
2023/09/04 05:40:25;;;;;;;3.03;2.80;;;20.70;65.00;21.20;101871.00;;;;5034625;28;20206;-57
2023/09/04 05:42:51;;;;;;;3.27;2.80;;;20.70;65.10;21.20;101876.00;;;;5034624;28;20183;-57
2023/09/04 05:45:17;;;;;;;2.80;2.60;;;20.70;65.10;21.20;101887.00;;;;5034206;28;20211;-57
2023/09/04 05:47:43;;;;;;;3.30;2.70;;;20.70;65.10;21.20;101878.00;;;;5034840;28;20178;-56
2023/09/04 05:50:10;;;;;;;3.37;2.70;;;20.70;65.20;21.20;101881.00;;;;5029689;28;20209;-57
2023/09/04 05:52:36;;;;;;;2.97;2.73;;;20.60;65.30;21.20;101872.00;;;;5015674;28;20191;-56
2023/09/04 05:55:03;;;;;;;2.70;2.50;;;20.60;65.60;21.20;101859.00;;;;5031382;28;20975;-56
2023/09/04 05:57:28;;;;;;;2.90;2.70;;;20.60;65.70;21.20;101855.00;;;;5019750;28;20270;-56
2023/09/04 05:59:54;;;;;;;2.70;2.50;;;20.60;65.80;21.20;101856.00;;;;5031010;28;20257;-62
2023/09/04 06:02:20;;;;;;;2.93;2.70;;;20.60;65.80;21.20;101848.00;;;;5010185;28;20669;-61
2023/09/04 06:04:46;;;;;;;2.90;2.70;;;20.50;65.90;21.20;101844.00;;;;5023051;28;20309;-59
2023/09/04 06:07:14;;;;;;;2.70;2.50;;;20.50;66.00;21.20;101853.00;;;;5037493;28;20262;-57
2023/09/04 06:09:40;;;;;;;2.80;2.60;;;20.50;66.10;21.20;101847.00;;;;5024953;28;20183;-58
2023/09/04 06:12:08;;;;;;;2.80;2.60;;;20.50;66.20;21.20;101837.00;;;;5021840;28;20191;-57
2023/09/04 06:14:34;;;;;;;2.90;2.63;;;20.50;66.40;21.10;101839.00;;;;5011910;28;20195;-57
2023/09/04 06:17:00;;;;;;;3.30;3.00;;;20.50;66.50;21.10;101838.00;;;;5027868;28;20186;-57
2023/09/04 06:19:26;;;;;;;3.27;2.70;;;20.40;66.40;21.10;101836.00;;;;5040433;28;20171;-57
2023/09/04 06:21:51;;;;;;;3.00;2.77;;;20.40;66.40;21.10;101839.00;;;;5046501;28;20547;-56
2023/09/04 06:24:17;;;;;;;2.67;2.47;;;20.40;66.50;21.10;101847.00;;;;5013082;28;20278;-57
2023/09/04 06:26:43;;;;;;;2.50;2.30;;;20.40;66.70;21.10;101837.00;;;;5025310;28;20179;-57
2023/09/04 06:29:08;;;;;;;3.73;2.70;;;20.40;66.80;21.10;101772.00;;;;5013112;28;20190;-56
2023/09/04 06:31:34;;;;;;;4.00;2.80;;;20.40;66.90;21.10;101844.00;;;;5030841;28;20627;-57
2023/09/04 06:34:03;;;;;;;3.13;2.60;;;20.40;67.00;21.10;101848.00;;;;5030815;28;20182;-57
2023/09/04 06:36:29;;;;;;;2.57;2.30;;;20.40;67.10;21.10;101847.00;;;;5013100;28;20194;-57
2023/09/04 06:38:55;;;;;;;2.80;2.60;;;20.30;67.00;21.10;101841.00;;;;5030797;28;20209;-56
2023/09/04 06:41:21;;;;;;;2.60;2.30;;;20.30;67.00;21.10;101855.00;;;;5030613;28;20257;-57
2023/09/04 06:43:47;;;;;;;2.63;2.43;;;20.30;67.00;21.10;101839.00;;;;5030673;28;20213;-57
2023/09/04 06:46:13;;;;;;;2.50;2.30;;;20.30;67.30;21.10;101845.00;;;;5029682;28;20193;-57
2023/09/04 06:48:39;;;;;;;2.90;2.60;;;20.30;67.20;21.10;101849.00;;;;5029210;28;20580;-57
2023/09/04 06:51:05;;;;;;;2.70;2.50;;;20.30;67.20;21.10;101842.00;;;;5016777;28;20202;-57
2023/09/04 06:53:31;;;;;;;2.60;2.40;;;20.30;67.30;21.10;101847.00;;;;5026305;28;20188;-58
2023/09/04 06:55:56;;;;;;;2.47;2.27;;;20.30;67.20;21.10;101835.00;;;;5031205;28;20589;-56
2023/09/04 06:58:24;;;;;;;2.80;2.60;;;20.40;67.40;21.10;101839.00;;;;5030777;28;20187;-58
2023/09/04 07:00:51;;;;;;;2.57;2.37;;;20.40;67.30;21.10;101836.00;;;;5000508;28;20211;-57
2023/09/04 07:03:17;;;;;;;3.53;2.57;;;20.40;67.30;21.10;101843.00;;;;5030484;28;20671;-57
2023/09/04 07:05:43;;;;;;;2.80;2.60;;;20.40;67.20;21.10;101839.00;;;;5020192;28;20190;-57
2023/09/04 07:08:09;;;;;;;2.93;2.63;;;20.50;67.40;21.20;101832.00;;;;5012659;28;20179;-56
2023/09/04 07:10:35;;;;;;;2.80;2.60;;;20.50;67.20;21.20;101836.00;;;;5015235;28;20206;-56
2023/09/04 07:13:01;;;;;;;4.00;2.40;;;20.60;67.30;21.20;101831.00;;;;5005246;28;20171;-57
2023/09/04 07:15:27;;;;;;;3.73;2.50;;;20.60;67.40;21.20;101834.00;;;;5015445;28;20180;-57
2023/09/04 07:17:52;;;;;;;2.80;2.50;;;20.60;67.30;21.20;101841.00;;;;5010778;28;20203;-56
2023/09/04 07:20:18;;;;;;;4.10;2.50;;;20.60;67.20;21.20;101830.00;;;;5030197;28;20673;-57
2023/09/04 07:22:44;;;;;;;2.80;2.60;;;20.60;67.30;21.20;101823.00;;;;5030259;28;20681;-56
2023/09/04 07:25:11;;;;;;;2.50;2.30;;;20.60;67.30;21.20;101837.00;;;;5029959;28;20214;-58
2023/09/04 07:27:37;;;;;;;2.57;2.37;;;20.60;67.40;21.30;101826.00;;;;5030246;28;20237;-57
2023/09/04 07:30:03;;;;;;;2.90;2.50;;;20.60;67.30;21.20;101827.00;;;;5014252;28;20179;-57
2023/09/04 07:32:29;;;;;;;2.67;2.47;;;20.60;67.30;21.20;101830.00;;;;5018893;28;20860;-57
2023/09/04 07:34:56;;;;;;;3.10;2.40;;;20.60;67.30;21.30;101825.00;;;;5001684;28;20274;-57
2023/09/04 07:37:26;;;;;;;2.80;2.60;;;20.60;67.30;21.20;101825.00;;;;5000078;28;20195;-56
2023/09/04 07:39:53;;;;;;;2.50;2.30;;;20.60;67.30;21.30;101823.00;;;;5013795;28;20593;-56
2023/09/04 07:42:19;;;;;;;2.80;2.60;;;20.70;67.40;21.30;101828.00;;;;4998603;28;20693;-56
2023/09/04 07:44:45;;;;;;;2.50;2.30;;;20.70;67.40;21.30;101829.00;;;;5013126;28;20211;-57
2023/09/04 07:47:10;;;;;;;3.00;2.70;;;20.70;67.20;21.30;101827.00;;;;5014568;28;20191;-56
2023/09/04 07:49:36;;;;;;;2.93;2.40;;;20.70;67.40;21.30;101837.00;;;;5014725;28;20264;-56
2023/09/04 07:52:02;;;;;;;2.70;2.50;;;20.70;67.20;21.30;101828.00;;;;5017752;28;20619;-57
2023/09/04 07:54:28;;;;;;;2.77;2.27;;;20.70;67.30;21.30;101830.00;;;;5028355;28;20186;-57
2023/09/04 07:56:54;;;;;;;3.03;2.50;;;20.70;67.30;21.30;101833.00;;;;5020641;28;20234;-57
2023/09/04 07:59:19;;;;;;;2.50;2.30;;;20.70;67.40;21.30;101832.00;;;;5028207;28;20471;-57
2023/09/04 08:01:45;;;;;;;2.60;2.40;;;20.70;67.40;21.30;101827.00;;;;5027881;28;20210;-57
2023/09/04 08:04:13;;;;;;;2.50;2.30;;;20.70;67.40;21.40;101831.00;;;;5044755;28;20203;-57
2023/09/04 08:06:39;;;;;;;4.40;2.20;;;20.70;67.40;21.40;101832.00;;;;5025583;28;20183;-56
2023/09/04 08:09:04;;;;;;;2.60;2.40;;;20.70;67.40;21.40;101824.00;;;;5031644;28;20708;-56
2023/09/04 08:11:30;;;;;;;2.60;2.40;;;20.70;67.40;21.40;101827.00;;;;5011938;28;20578;-57
2023/09/04 08:13:56;;;;;;;2.60;2.40;;;20.70;67.50;21.40;101822.00;;;;5025721;28;20179;-57
2023/09/04 08:16:22;;;;;;;2.70;2.50;;;20.70;67.50;21.40;101829.00;;;;5021630;28;20209;-56
2023/09/04 08:18:47;;;;;;;2.53;2.33;;;20.70;67.50;21.40;101832.00;;;;5049727;28;20278;-56
2023/09/04 08:21:13;;;;;;;2.70;2.50;;;20.70;67.70;21.40;101824.00;;;;5034887;28;20322;-57
2023/09/04 08:23:39;;;;;;;2.53;2.30;;;20.70;67.80;21.40;101825.00;;;;5018520;28;20619;-56
2023/09/04 08:26:06;;;;;;;2.70;2.50;;;20.70;68.00;21.40;101819.00;;;;5026615;28;20646;-56
2023/09/04 08:28:31;;;;;;;2.83;2.40;;;20.70;68.20;21.40;101823.00;;;;5024488;28;20653;-56
2023/09/04 08:30:57;;;;;;;3.60;2.57;;;20.70;68.40;21.40;101823.00;;;;5029051;28;20202;-57
2023/09/04 08:33:23;;;;;;;2.47;2.27;;;20.70;68.50;21.40;101828.00;;;;5011023;28;20194;-57
2023/09/04 08:35:48;;;;;;;2.47;2.27;;;20.70;68.60;21.50;101832.00;;;;5028970;28;20179;-57
2023/09/04 08:38:14;;;;;;;2.73;2.50;;;20.70;68.70;21.40;101836.00;;;;5029237;28;20187;-57
2023/09/04 08:40:41;;;;;;;2.80;2.60;;;20.70;68.70;21.50;101833.00;;;;5029023;28;20575;-56
2023/09/04 08:43:10;;;;;;;2.60;2.40;;;20.70;68.80;21.50;101827.00;;;;5029283;28;20183;-57
2023/09/04 08:45:36;;;;;;;2.67;2.37;;;20.70;68.90;21.50;101834.00;;;;5011841;28;20240;-57
2023/09/04 08:48:03;;;;;;;2.63;2.43;;;20.70;69.00;21.50;101825.00;;;;5029145;28;20249;-56
2023/09/04 08:50:30;;;;;;;4.13;2.53;;;20.70;69.10;21.50;101829.00;;;;5028785;28;20242;-58
2023/09/04 08:52:55;;;;;;;3.97;2.80;;;20.70;69.30;21.50;101820.00;;;;5029250;28;20209;-56
2023/09/04 08:55:21;;;;;;;3.20;2.70;;;20.80;69.50;21.50;101817.00;;;;5011515;28;20653;-57
2023/09/04 08:57:47;;;;;;;4.20;2.50;;;20.80;69.80;21.50;101829.00;;;;5003755;28;20183;-57
2023/09/04 09:00:15;;;;;;;5.37;2.90;;;20.80;69.90;21.50;101755.00;;;;4999452;28;20183;-56
2023/09/04 09:02:42;;;;;;;7.57;2.50;;;20.80;69.80;21.50;101821.00;;;;5027175;28;20677;-57
2023/09/04 09:05:10;;;;;;;7.13;2.90;;;20.80;70.00;21.50;101819.00;;;;5007767;28;20214;-57
2023/09/04 09:07:36;;;;;;;5.47;3.00;;;20.80;70.20;21.50;101808.00;;;;5010977;28;20190;-58
2023/09/04 09:10:04;;;;;;;4.20;2.63;;;20.80;70.20;21.60;101823.00;;;;5010825;28;20183;-57
2023/09/04 09:12:30;;;;;;;3.97;2.80;;;20.80;70.20;21.60;101821.00;;;;5010674;28;20612;-57
2023/09/04 09:14:59;;;;;;;3.10;2.80;;;20.80;70.30;21.60;101823.00;;;;5017839;28;20187;-56
2023/09/04 09:17:26;;;;;;;2.80;2.47;;;20.80;70.70;21.60;101814.00;;;;5015114;28;20183;-56
2023/09/04 09:19:52;;;;;;;4.33;2.60;;;20.80;70.70;21.60;101820.00;;;;5028399;28;20695;-58
2023/09/04 09:22:20;;;;;;;2.70;2.50;;;20.90;71.00;21.60;101813.00;;;;5028128;28;20277;-57
2023/09/04 09:24:56;;;;;;;4.63;2.70;;;20.90;71.60;21.60;101823.00;;;;5021015;28;20576;-58
2023/09/04 09:27:24;;;;;;;2.90;2.60;;;20.90;71.50;21.60;101812.00;;;;5023620;28;20194;-59
2023/09/04 09:29:50;;;;;;;3.40;2.47;;;20.90;71.30;21.60;101810.00;;;;5007812;28;20549;-57
2023/09/04 09:32:17;;;;;;;3.43;2.70;;;20.90;71.70;21.60;101804.00;;;;5017759;28;20206;-55
2023/09/04 09:34:51;;;;;;;2.80;2.60;;;20.90;72.50;21.60;101807.00;;;;5026675;28;20286;-58
2023/09/04 09:37:18;;;;;;;2.90;2.70;;;21.00;73.30;21.60;101800.00;;;;5022339;28;20179;-57
2023/09/04 09:39:44;;;;;;;2.83;2.63;;;21.00;73.10;21.60;101794.00;;;;5009550;28;20184;-57
2023/09/04 09:42:10;;;;;;;4.33;2.50;;;21.10;73.10;21.70;101808.00;;;;5013007;28;20249;-58
2023/09/04 09:44:36;;;;;;;2.70;2.50;;;21.00;73.10;21.70;101796.00;;;;5018491;28;20222;-60
2023/09/04 09:47:01;;;;;;;3.13;2.50;;;21.00;73.10;21.70;101796.00;;;;5007026;28;20234;-57
2023/09/04 09:49:27;;;;;;;3.23;2.40;;;21.10;73.20;21.70;101803.00;;;;5016154;28;20206;-56
2023/09/04 09:51:56;;;;;;;2.90;2.60;;;21.10;73.70;21.70;101804.00;;;;5012962;28;20632;-56
2023/09/04 09:54:42;;;;;;;3.03;2.80;;;21.10;74.50;21.80;101805.00;;;;5016615;28;20191;-56
2023/09/04 09:57:16;;;;;;;2.80;2.60;;;21.20;75.00;21.80;101786.00;;;;5031044;28;20190;-57
2023/09/04 09:59:49;;;;;;;2.87;2.60;;;21.20;73.90;21.80;101789.00;;;;5027275;28;20217;-58
2023/09/04 10:02:23;;;;;;;2.60;2.40;;;21.20;73.70;21.90;101774.00;;;;5036445;28;20203;-58
2023/09/04 10:04:49;;;;;;;2.80;2.60;;;21.20;73.50;21.90;101775.00;;;;5040784;28;20294;-62
2023/09/04 10:07:18;;;;;;;2.83;2.57;;;21.20;73.30;21.90;101777.00;;;;5015219;28;20182;-57
2023/09/04 10:09:45;;;;;;;3.23;2.40;;;21.20;73.30;21.90;101764.00;;;;5025651;28;20178;-57
2023/09/04 10:12:36;;;;;;;2.70;2.50;;;21.30;73.40;22.00;101776.00;;;;5026552;28;20202;-59
2023/09/04 10:15:03;;;;;;;2.53;2.33;;;21.30;73.50;22.00;101765.00;;;;5006245;28;20194;-58
2023/09/04 10:17:43;;;;;;;2.70;2.50;;;21.30;73.50;22.00;101769.00;;;;5020703;28;20188;-56
2023/09/04 10:20:09;;;;;;;2.70;2.50;;;21.30;73.40;22.00;101757.00;;;;5024142;28;20526;-58
2023/09/04 10:22:45;;;;;;;2.70;2.50;;;21.30;73.50;22.00;101755.00;;;;5012653;28;20698;-58
2023/09/04 10:25:27;;;;;;;2.60;2.40;;;21.30;73.40;22.10;101752.00;;;;5026031;28;20781;-58
2023/09/04 10:28:08;;;;;;;2.70;2.50;;;21.30;73.30;22.10;101755.00;;;;5013073;28;20175;-58
2023/09/04 10:30:36;;;;;;;2.53;2.33;;;21.40;73.50;22.10;101753.00;;;;5023433;28;20607;-57
2023/09/04 10:33:02;;;;;;;2.73;2.53;;;21.30;73.40;22.10;101739.00;;;;5030475;28;20175;-55
2023/09/04 10:35:28;;;;;;;2.50;2.30;;;21.40;73.30;22.10;101741.00;;;;5029701;28;20179;-55
2023/09/04 10:37:54;;;;;;;2.70;2.30;;;21.40;73.50;22.10;101742.00;;;;5030607;28;20183;-57
2023/09/04 10:40:20;;;;;;;2.50;2.30;;;21.40;73.50;22.10;101749.00;;;;5030130;28;20229;-57
2023/09/04 10:42:46;;;;;;;6.70;2.70;;;21.40;73.70;22.20;101746.00;;;;5028918;28;20182;-57
2023/09/04 10:45:15;;;;;;;5.70;2.60;;;21.50;73.90;22.20;101744.00;;;;5029773;28;20277;-56
2023/09/04 10:47:51;;;;;;;2.83;2.63;;;21.50;73.60;22.20;101748.00;;;;5029172;28;20270;-57